createdAt,value
2023-04-11T00:01:27.235Z,45.67
2023-04-11T00:03:55.161Z,40.90
2023-04-11T00:06:24.312Z,58.95
2023-04-11T00:08:52.796Z,54.65
2023-04-11T00:11:21.154Z,51.03
2023-04-11T00:13:48.914Z,51.47
2023-04-11T00:16:17.045Z,50.58
2023-04-11T00:18:45.093Z,50.03
2023-04-11T00:21:12.827Z,64.82
2023-04-11T00:23:40.706Z,65.75
2023-04-11T00:26:08.698Z,50.70
2023-04-11T00:28:39.227Z,51.15
2023-04-11T00:31:07.331Z,57.38
2023-04-11T00:33:35.904Z,50.70
2023-04-11T00:36:03.955Z,55.72
2023-04-11T00:38:32.512Z,54.92
2023-04-11T00:41:00.546Z,67.65
2023-04-11T00:43:28.312Z,53.25
2023-04-11T00:45:56.487Z,60.08
2023-04-11T00:48:28.422Z,60.22
2023-04-11T00:50:56.441Z,65.03
2023-04-11T00:53:24.307Z,81.72
2023-04-11T00:55:52.365Z,61.60
2023-04-11T00:58:20.590Z,56.53
2023-04-11T01:00:50.036Z,71.70
2023-04-11T01:03:19.330Z,72.00
2023-04-11T01:05:49.593Z,72.75
2023-04-11T01:08:18.708Z,65.22
2023-04-11T01:10:46.852Z,66.30
2023-04-11T01:13:14.959Z,62.13
2023-04-11T01:15:42.731Z,62.00
2023-04-11T01:18:10.656Z,63.95
2023-04-11T01:20:38.628Z,73.47
2023-04-11T01:23:07.014Z,47.53
2023-04-11T01:25:34.784Z,54.28
2023-04-11T01:28:03.512Z,54.40
2023-04-11T01:30:33.715Z,58.33
2023-04-11T01:33:01.563Z,57.88
2023-04-11T01:35:29.316Z,48.63
2023-04-11T01:37:57.011Z,52.95
2023-04-11T01:40:24.875Z,49.78
2023-04-11T01:42:53.217Z,49.65
2023-04-11T01:45:22.548Z,51.78
2023-04-11T01:47:52.143Z,57.38
2023-04-11T01:50:20.679Z,45.80
2023-04-11T01:52:49.533Z,47.78
2023-04-11T01:55:17.800Z,51.45
2023-04-11T01:57:45.568Z,53.65
2023-04-11T02:00:14.865Z,52.67
2023-04-11T02:02:43.433Z,54.13
2023-04-11T02:05:12.299Z,56.60
2023-04-11T02:07:39.989Z,61.80
2023-04-11T02:10:08.238Z,53.15
2023-04-11T02:12:35.977Z,55.13
2023-04-11T02:15:04.044Z,64.90
2023-04-11T02:17:31.897Z,67.97
2023-04-11T02:19:59.720Z,54.42
2023-04-11T02:22:27.377Z,62.03
2023-04-11T02:24:55.140Z,51.30
2023-04-11T02:27:23.306Z,63.63
2023-04-11T02:29:51.066Z,80.00
2023-04-11T02:32:18.815Z,66.95
2023-04-11T02:34:47.076Z,64.55
2023-04-11T02:37:14.857Z,75.13
2023-04-11T02:39:42.641Z,72.72
2023-04-11T02:42:12.093Z,70.90
2023-04-11T02:44:39.764Z,71.68
2023-04-11T02:47:07.900Z,73.60
2023-04-11T02:49:36.555Z,57.17
2023-04-11T02:52:05.388Z,63.35
2023-04-11T02:54:33.044Z,54.55
2023-04-11T02:57:02.337Z,50.28
2023-04-11T02:59:30.748Z,35.80
2023-04-11T03:02:01.277Z,45.35
2023-04-11T03:04:31.347Z,47.90
2023-04-11T03:07:13.837Z,46.83
2023-04-11T03:09:41.559Z,48.03
2023-04-11T03:12:09.303Z,47.30
2023-04-11T03:14:46.972Z,62.05
2023-04-11T03:17:17.912Z,56.63
2023-04-11T03:19:45.670Z,46.35
2023-04-11T03:22:13.905Z,51.63
2023-04-11T03:24:42.859Z,48.22
2023-04-11T03:27:10.625Z,59.90
2023-04-11T03:29:41.576Z,48.75
2023-04-11T03:32:16.093Z,55.70
2023-04-11T03:34:43.889Z,48.20
2023-04-11T03:37:13.186Z,46.40
2023-04-11T03:39:41.063Z,51.42
2023-04-11T03:42:08.804Z,49.58
2023-04-11T03:44:37.088Z,48.28
2023-04-11T03:47:05.074Z,49.65
2023-04-11T03:49:40.602Z,57.38
2023-04-11T03:52:09.917Z,47.88
2023-04-11T03:54:38.753Z,48.05
2023-04-11T03:57:09.636Z,41.33
2023-04-11T03:59:37.445Z,38.00
2023-04-11T04:02:10.822Z,49.13
2023-04-11T04:04:47.325Z,38.78
2023-04-11T04:07:44.463Z,50.97
2023-04-11T04:10:23.644Z,46.33
2023-04-11T04:12:53.873Z,51.30
2023-04-11T04:15:25.001Z,61.05
2023-04-11T04:17:55.013Z,55.03
2023-04-11T04:20:38.784Z,42.47
2023-04-11T04:23:06.642Z,49.22
2023-04-11T04:25:51.221Z,54.42
2023-04-11T04:28:26.234Z,45.67
2023-04-11T04:30:58.244Z,51.55
2023-04-11T04:33:33.164Z,53.35
2023-04-11T04:36:05.455Z,45.45
2023-04-11T04:38:38.638Z,47.78
2023-04-11T04:41:17.082Z,44.30
2023-04-11T04:43:54.881Z,49.72
2023-04-11T04:46:36.737Z,55.80
2023-04-11T04:49:05.987Z,49.30
2023-04-11T04:51:36.782Z,37.70
2023-04-11T04:54:05.998Z,41.53
2023-04-11T04:56:34.183Z,48.25
2023-04-11T04:59:01.931Z,42.78
2023-04-11T05:01:33.052Z,47.92
2023-04-11T05:04:03.211Z,55.22
2023-04-11T05:06:49.697Z,55.63
2023-04-11T05:09:18.404Z,50.63
2023-04-11T05:11:46.303Z,59.63
2023-04-11T05:14:15.676Z,69.18
2023-04-11T05:16:43.928Z,43.33
2023-04-11T05:19:11.873Z,50.35
2023-04-11T05:21:43.725Z,40.78
2023-04-11T05:24:12.161Z,47.92
2023-04-11T05:26:40.760Z,41.50
2023-04-11T05:29:10.939Z,34.90
2023-04-11T05:31:38.743Z,34.10
2023-04-11T05:34:06.837Z,39.72
2023-04-11T05:36:34.665Z,47.80
2023-04-11T05:39:02.580Z,48.55
2023-04-11T05:41:30.297Z,58.40
2023-04-11T05:43:58.205Z,50.17
2023-04-11T05:46:27.740Z,64.88
2023-04-11T05:48:58.079Z,72.55
2023-04-11T05:51:26.524Z,72.03
2023-04-11T05:53:54.631Z,71.97
2023-04-11T05:56:22.481Z,58.15
2023-04-11T05:58:50.272Z,48.03
2023-04-11T06:01:21.073Z,62.72
2023-04-11T06:03:48.905Z,66.38
2023-04-11T06:06:16.755Z,54.05
2023-04-11T06:08:45.033Z,67.22
2023-04-11T06:11:12.919Z,71.93
2023-04-11T06:13:40.699Z,60.38
2023-04-11T06:16:08.709Z,60.40
2023-04-11T06:18:36.386Z,66.03
2023-04-11T06:21:04.276Z,47.25
2023-04-11T06:23:35.139Z,59.83
2023-04-11T06:26:03.382Z,57.75
2023-04-11T06:28:31.204Z,73.65
2023-04-11T06:30:58.962Z,44.35
2023-04-11T06:33:30.016Z,58.85
2023-04-11T06:35:57.907Z,59.47
2023-04-11T06:38:25.662Z,37.63
2023-04-11T06:40:54.842Z,43.20
2023-04-11T06:43:22.590Z,45.72
2023-04-11T06:45:50.348Z,62.58
2023-04-11T06:48:18.244Z,37.90
2023-04-11T06:50:46.028Z,51.97
2023-04-11T06:53:13.881Z,51.10
2023-04-11T06:55:41.624Z,29.85
2023-04-11T06:58:09.350Z,37.28
2023-04-11T07:00:37.135Z,31.52
2023-04-11T07:03:08.500Z,27.42
2023-04-11T07:05:38.271Z,33.25
2023-04-11T07:08:07.238Z,44.63
2023-04-11T07:10:34.992Z,69.60
2023-04-11T07:13:02.772Z,34.97
2023-04-11T07:15:30.528Z,46.92
2023-04-11T07:17:58.325Z,30.73
2023-04-11T07:20:26.187Z,37.45
2023-04-11T07:22:54.188Z,32.20
2023-04-11T07:25:22.901Z,38.75
2023-04-11T07:27:51.862Z,39.33
2023-04-11T07:30:19.624Z,53.63
2023-04-11T07:32:47.471Z,47.15
2023-04-11T07:35:15.435Z,42.83
2023-04-11T07:37:43.267Z,40.22
2023-04-11T07:40:11.862Z,41.45
2023-04-11T07:43:04.289Z,54.58
2023-04-11T07:45:33.546Z,36.20
2023-04-11T07:48:01.531Z,37.50
2023-04-11T07:50:29.421Z,40.63
2023-04-11T07:52:59.747Z,37.25
2023-04-11T07:55:30.150Z,35.58
2023-04-11T07:57:57.948Z,44.35
2023-04-11T08:00:26.170Z,30.48
2023-04-11T08:02:54.327Z,20.20
2023-04-11T08:05:28.109Z,20.83
2023-04-11T08:07:56.166Z,17.40
2023-04-11T08:10:25.070Z,26.60
2023-04-11T08:12:53.278Z,25.30
2023-04-11T08:15:21.031Z,33.20
2023-04-11T08:17:49.996Z,21.00
2023-04-11T08:20:19.264Z,22.77
2023-04-11T08:22:52.626Z,30.70
2023-04-11T08:25:45.891Z,31.50
2023-04-11T08:28:13.639Z,30.17
2023-04-11T08:30:42.116Z,39.88
2023-04-11T08:33:10.343Z,30.65
2023-04-11T08:35:38.314Z,26.95
2023-04-11T08:38:09.467Z,33.25
2023-04-11T08:40:37.674Z,36.65
2023-04-11T08:43:12.046Z,30.17
2023-04-11T08:45:40.637Z,53.08
2023-04-11T08:48:10.646Z,42.25
2023-04-11T08:50:42.385Z,34.17
2023-04-11T08:53:11.298Z,24.30
2023-04-11T08:55:48.974Z,20.98
2023-04-11T08:58:17.234Z,20.48
2023-04-11T09:00:45.306Z,23.10
2023-04-11T09:03:16.366Z,27.55
2023-04-11T09:05:46.206Z,23.30
2023-04-11T09:08:15.534Z,17.85
2023-04-11T09:10:47.833Z,27.08
2023-04-11T09:13:24.680Z,16.42
2023-04-11T09:16:14.573Z,14.23
2023-04-11T09:18:47.063Z,23.67
2023-04-11T09:21:16.191Z,21.08
2023-04-11T09:23:47.000Z,20.45
2023-04-11T09:26:26.194Z,32.67
2023-04-11T09:28:54.196Z,19.38
2023-04-11T09:31:22.515Z,18.15
2023-04-11T09:33:54.937Z,18.92
2023-04-11T09:36:25.048Z,30.38
2023-04-11T09:38:54.171Z,41.58
2023-04-11T09:41:33.135Z,21.95
2023-04-11T09:44:01.564Z,20.90
2023-04-11T09:46:29.659Z,21.60
2023-04-11T09:48:57.550Z,22.33
2023-04-11T09:51:35.021Z,29.00
2023-04-11T09:54:05.141Z,17.85
2023-04-11T09:56:35.066Z,21.80
2023-04-11T09:59:04.379Z,13.13
2023-04-11T10:01:32.403Z,22.13
2023-04-11T10:04:01.611Z,20.38
2023-04-11T10:06:34.309Z,23.05
2023-04-11T10:09:12.422Z,13.57
2023-04-11T10:11:44.741Z,19.17
2023-04-11T10:14:37.531Z,28.95
2023-04-11T10:17:21.859Z,24.00
2023-04-11T10:19:57.120Z,21.23
2023-04-11T10:22:43.760Z,18.00
2023-04-11T10:25:18.289Z,23.65
2023-04-11T10:27:48.026Z,19.40
2023-04-11T10:30:16.434Z,20.70
2023-04-11T10:33:12.526Z,29.75
2023-04-11T10:36:00.290Z,31.58
2023-04-11T10:38:37.348Z,28.83
2023-04-11T10:41:19.874Z,22.15
2023-04-11T10:43:47.816Z,30.05
2023-04-11T10:46:25.220Z,22.83
2023-04-11T10:49:04.480Z,20.65
2023-04-11T10:51:34.301Z,25.77
2023-04-11T10:56:50.802Z,23.35
2023-04-11T10:59:36.427Z,23.65
2023-04-11T11:02:04.379Z,27.70
2023-04-11T11:04:36.984Z,23.00
2023-04-11T11:07:07.674Z,32.60
2023-04-11T11:09:35.710Z,19.95
2023-04-11T11:12:07.012Z,18.77
2023-04-11T11:14:35.060Z,20.42
2023-04-11T11:17:04.130Z,14.75
2023-04-11T11:19:32.101Z,20.38
2023-04-11T11:24:53.167Z,12.80
2023-04-11T11:27:25.378Z,18.30
2023-04-11T11:29:53.656Z,16.90
2023-04-11T11:32:24.943Z,12.63
2023-04-11T11:34:54.024Z,13.68
2023-04-11T11:37:21.933Z,13.40
2023-04-11T11:39:50.314Z,15.50
2023-04-11T11:42:18.375Z,11.00
2023-04-11T11:44:46.382Z,20.33
2023-04-11T11:47:16.862Z,11.85
2023-04-11T11:49:48.469Z,12.63
2023-04-11T11:52:35.175Z,15.85
2023-04-11T11:55:08.108Z,15.52
2023-04-11T11:57:37.787Z,14.23
2023-04-11T12:00:09.396Z,14.35
2023-04-11T12:02:39.330Z,10.00
2023-04-11T12:05:08.058Z,15.27
2023-04-11T12:07:38.087Z,10.30
2023-04-11T12:10:12.027Z,16.27
2023-04-11T12:12:53.611Z,23.17
2023-04-11T12:15:24.151Z,16.30
2023-04-11T12:17:54.176Z,20.13
2023-04-11T12:20:27.329Z,22.02
2023-04-11T12:22:55.506Z,15.32
2023-04-11T12:25:25.760Z,12.13
2023-04-11T12:27:53.667Z,16.25
2023-04-11T12:30:21.526Z,9.93
2023-04-11T12:32:52.642Z,11.18
2023-04-11T12:35:23.131Z,18.90
2023-04-11T12:37:51.074Z,12.18
2023-04-11T12:40:19.021Z,14.13
2023-04-11T12:42:56.908Z,17.63
2023-04-11T12:45:37.761Z,19.85
2023-04-11T12:48:05.790Z,20.15
2023-04-11T12:50:33.646Z,12.95
2023-04-11T12:53:01.723Z,18.67
2023-04-11T12:55:30.204Z,12.63
2023-04-11T12:57:58.071Z,14.02
2023-04-11T13:00:26.199Z,13.70
2023-04-11T13:02:57.558Z,20.40
2023-04-11T13:05:25.823Z,10.52
2023-04-11T13:07:53.764Z,15.50
2023-04-11T13:10:24.413Z,8.25
2023-04-11T13:12:53.475Z,9.00
2023-04-11T13:15:23.743Z,13.90
2023-04-11T13:17:54.025Z,10.40
2023-04-11T13:20:21.913Z,11.38
2023-04-11T13:22:49.816Z,16.08
2023-04-11T13:25:17.806Z,12.30
2023-04-11T13:27:45.674Z,14.30
2023-04-11T13:30:14.284Z,26.38
2023-04-11T13:32:42.045Z,15.15
2023-04-11T13:35:10.407Z,13.02
2023-04-11T13:37:38.231Z,23.70
2023-04-11T13:40:11.110Z,21.48
2023-04-11T13:45:06.801Z,12.80
2023-04-11T13:47:36.912Z,25.83
2023-04-11T13:50:08.394Z,12.10
2023-04-11T13:52:36.135Z,21.95
2023-04-11T13:55:04.169Z,16.55
2023-04-11T13:57:32.030Z,23.13
2023-04-11T14:00:06.774Z,13.77
2023-04-11T14:02:34.727Z,16.67
2023-04-11T14:05:02.739Z,22.15
2023-04-11T14:07:30.757Z,28.33
2023-04-11T14:09:58.550Z,15.63
2023-04-11T14:12:27.382Z,14.15
2023-04-11T14:14:55.183Z,35.33
2023-04-11T14:17:22.956Z,17.95
2023-04-11T14:19:50.882Z,25.67
2023-04-11T14:22:19.726Z,13.43
2023-04-11T14:24:47.557Z,20.45
2023-04-11T14:27:15.619Z,22.27
2023-04-11T14:29:43.371Z,30.05
2023-04-11T14:32:11.484Z,21.58
2023-04-11T14:34:39.320Z,14.65
2023-04-11T14:37:08.272Z,12.00
2023-04-11T14:39:36.027Z,12.75
2023-04-11T14:42:08.018Z,25.83
2023-04-11T14:44:39.441Z,19.23
2023-04-11T14:47:07.174Z,20.92
2023-04-11T14:49:35.068Z,17.38
2023-04-11T14:52:03.171Z,22.08
2023-04-11T14:54:31.276Z,27.27
2023-04-11T14:56:59.859Z,25.33
2023-04-11T14:59:29.589Z,34.75
2023-04-11T15:01:59.672Z,20.83
2023-04-11T15:04:27.526Z,14.98
2023-04-11T15:06:56.747Z,13.25
2023-04-11T15:09:25.483Z,14.88
2023-04-11T15:11:53.419Z,12.40
2023-04-11T15:14:23.697Z,18.23
2023-04-11T15:16:52.077Z,12.38
2023-04-11T15:19:19.801Z,13.40
2023-04-11T15:21:47.528Z,19.60
2023-04-11T15:24:17.129Z,20.75
2023-04-11T15:26:45.105Z,9.80
2023-04-11T15:29:16.010Z,13.52
2023-04-11T15:31:43.887Z,17.77
2023-04-11T15:34:13.993Z,22.95
2023-04-11T15:36:42.703Z,18.23
2023-04-11T15:39:10.441Z,35.33
2023-04-11T15:41:38.106Z,24.38
2023-04-11T15:44:05.924Z,15.57
2023-04-11T15:46:33.751Z,21.00
2023-04-11T15:49:01.554Z,23.40
2023-04-11T15:51:29.389Z,14.82
2023-04-11T15:53:57.293Z,21.38
2023-04-11T15:56:25.223Z,14.18
2023-04-11T15:58:52.983Z,24.50
2023-04-11T16:01:25.409Z,25.77
2023-04-11T16:03:54.204Z,19.08
2023-04-11T16:06:22.707Z,37.58
2023-04-11T16:08:51.153Z,26.65
2023-04-11T16:11:19.270Z,22.65
2023-04-11T16:13:46.994Z,24.20
2023-04-11T16:16:14.865Z,19.73
2023-04-11T16:18:42.690Z,22.65
2023-04-11T16:21:14.311Z,25.20
2023-04-11T16:23:44.229Z,13.68
2023-04-11T16:26:12.020Z,25.20
2023-04-11T16:28:39.783Z,20.85
2023-04-11T16:31:07.689Z,23.00
2023-04-11T16:33:35.433Z,24.38
2023-04-11T16:36:03.510Z,18.23
2023-04-11T16:38:31.314Z,24.08
2023-04-11T16:41:01.011Z,27.02
2023-04-11T16:43:28.762Z,41.85
2023-04-11T16:45:56.615Z,28.88
2023-04-11T16:48:24.741Z,21.63
2023-04-11T16:50:52.730Z,21.73
2023-04-11T16:53:20.637Z,33.45
2023-04-11T16:55:48.404Z,33.45
2023-04-11T16:58:16.455Z,22.67
2023-04-11T17:00:45.714Z,29.85
2023-04-11T17:03:13.609Z,31.73
2023-04-11T17:05:41.868Z,34.65
2023-04-11T17:08:09.808Z,29.75
2023-04-11T17:10:37.751Z,49.63
2023-04-11T17:13:05.753Z,40.10
2023-04-11T17:15:35.073Z,32.78
2023-04-11T17:18:03.140Z,48.47
2023-04-11T17:20:31.336Z,69.35
2023-04-11T17:22:59.361Z,41.67
2023-04-11T17:25:29.145Z,47.20
2023-04-11T17:27:57.684Z,37.15
2023-04-11T17:30:25.405Z,40.03
2023-04-11T17:32:55.374Z,31.55
2023-04-11T17:35:23.147Z,38.60
2023-04-11T17:37:51.122Z,52.67
2023-04-11T17:40:18.971Z,57.92
2023-04-11T17:42:46.780Z,39.50
2023-04-11T17:45:18.350Z,59.42
2023-04-11T17:47:47.819Z,70.20
2023-04-11T17:50:16.463Z,56.05
2023-04-11T17:52:46.293Z,52.92
2023-04-11T17:55:16.662Z,53.78
2023-04-11T17:57:49.257Z,60.83
2023-04-11T18:00:26.513Z,56.90
2023-04-11T18:02:57.931Z,59.25
2023-04-11T18:05:27.542Z,64.18
2023-04-11T18:07:58.435Z,51.67
2023-04-11T18:10:27.726Z,59.28
2023-04-11T18:12:57.697Z,43.97
2023-04-11T18:15:26.297Z,55.10
2023-04-11T18:17:54.774Z,42.50
2023-04-11T18:20:25.638Z,53.78
2023-04-11T18:22:56.253Z,53.13
2023-04-11T18:25:24.439Z,64.53
2023-04-11T18:27:52.194Z,49.17
2023-04-11T18:30:21.568Z,46.80
2023-04-11T18:32:54.134Z,37.78
2023-04-11T18:35:23.107Z,44.03
2023-04-11T18:37:51.158Z,43.75
2023-04-11T18:40:19.582Z,45.28
2023-04-11T18:42:50.449Z,47.88
2023-04-11T18:45:22.454Z,33.75
2023-04-11T18:47:51.192Z,38.00
2023-04-11T18:50:19.976Z,30.75
2023-04-11T18:52:52.891Z,32.83
2023-04-11T18:55:22.802Z,52.95
2023-04-11T18:57:53.893Z,34.50
2023-04-11T19:00:25.207Z,44.75
2023-04-11T19:02:53.335Z,47.90
2023-04-11T19:05:21.658Z,39.20
2023-04-11T19:07:49.522Z,46.08
2023-04-11T19:10:17.264Z,47.75
2023-04-11T19:12:45.266Z,33.50
2023-04-11T19:15:13.128Z,45.15
2023-04-11T19:17:41.358Z,39.78
2023-04-11T19:20:16.676Z,46.00
2023-04-11T19:22:46.297Z,38.10
2023-04-11T19:25:14.923Z,30.20
2023-04-11T19:27:42.857Z,37.03
2023-04-11T19:30:13.720Z,47.58
2023-04-11T19:32:44.242Z,41.13
2023-04-11T19:35:12.732Z,33.15
2023-04-11T19:37:41.267Z,47.03
2023-04-11T19:40:15.363Z,38.88
2023-04-11T19:42:47.438Z,39.65
2023-04-11T19:45:15.277Z,44.15
2023-04-11T19:47:43.197Z,31.92
2023-04-11T19:50:13.417Z,47.20
2023-04-11T19:52:42.670Z,45.85
2023-04-11T19:55:13.580Z,46.97
2023-04-11T19:57:43.846Z,44.13
2023-04-11T20:00:13.938Z,34.38
2023-04-11T20:02:48.148Z,44.47
2023-04-11T20:05:17.970Z,37.42
2023-04-11T20:07:46.852Z,40.90
2023-04-11T20:10:15.928Z,35.40
2023-04-11T20:12:43.800Z,30.50
2023-04-11T20:15:11.957Z,37.10
2023-04-11T20:17:39.891Z,44.80
2023-04-11T20:20:12.319Z,55.03
2023-04-11T20:22:41.205Z,52.55
2023-04-11T20:25:11.932Z,53.53
2023-04-11T20:27:41.333Z,38.22
2023-04-11T20:30:13.261Z,36.95
2023-04-11T20:32:41.625Z,41.13
2023-04-11T20:35:12.285Z,43.53
2023-04-11T20:37:41.510Z,43.63
2023-04-11T20:40:11.145Z,36.28
2023-04-11T20:42:45.525Z,42.75
2023-04-11T20:45:18.091Z,42.35
2023-04-11T20:47:50.413Z,49.47
2023-04-11T20:50:19.428Z,42.25
2023-04-11T20:52:51.516Z,44.65
2023-04-11T20:55:21.007Z,40.17
2023-04-11T20:57:49.125Z,56.47
2023-04-11T21:00:17.618Z,54.65
2023-04-11T21:02:47.093Z,65.75
2023-04-11T21:05:18.108Z,66.60
2023-04-11T21:07:46.175Z,44.55
2023-04-11T21:10:15.769Z,45.60
2023-04-11T21:12:43.620Z,52.50
2023-04-11T21:15:11.987Z,47.60
2023-04-11T21:17:39.921Z,40.05
2023-04-11T21:20:18.111Z,47.80
2023-04-11T21:22:47.912Z,69.93
2023-04-11T21:25:16.499Z,42.25
2023-04-11T21:27:44.842Z,51.10
2023-04-11T21:30:13.341Z,50.45
2023-04-11T21:32:41.210Z,60.40
2023-04-11T21:35:10.635Z,53.33
2023-04-11T21:37:38.924Z,45.42
2023-04-11T21:40:07.340Z,49.45
2023-04-11T21:42:35.174Z,44.20
2023-04-11T21:45:03.069Z,42.53
2023-04-11T21:47:31.145Z,47.17
2023-04-11T21:49:58.864Z,59.45
2023-04-11T21:52:26.647Z,56.13
2023-04-11T21:54:54.440Z,59.80
2023-04-11T21:57:22.347Z,44.67
2023-04-11T21:59:50.754Z,45.20
2023-04-11T22:02:18.857Z,50.58
2023-04-11T22:05:04.082Z,47.25
2023-04-11T22:07:48.763Z,40.13
2023-04-11T22:10:22.503Z,52.13
2023-04-11T22:12:53.843Z,50.25
2023-04-11T22:15:22.140Z,41.17
2023-04-11T22:17:51.109Z,48.45
2023-04-11T22:20:20.070Z,52.05
2023-04-11T22:22:48.237Z,44.97
2023-04-11T22:25:18.418Z,39.10
2023-04-11T22:27:46.300Z,38.55
2023-04-11T22:30:14.886Z,35.42
2023-04-11T22:32:42.696Z,43.67
2023-04-11T22:35:14.489Z,40.78
2023-04-11T22:37:42.299Z,42.90
2023-04-11T22:40:15.454Z,46.20
2023-04-11T22:45:11.698Z,44.92
2023-04-11T22:48:39.943Z,47.15
2023-04-11T22:51:08.174Z,48.30
2023-04-11T22:53:42.354Z,42.65
2023-04-11T22:56:13.190Z,47.42
2023-04-11T22:58:40.962Z,48.38
2023-04-11T23:01:15.793Z,44.95
2023-04-11T23:03:44.350Z,45.47
2023-04-11T23:06:12.131Z,48.92
2023-04-11T23:08:39.915Z,40.88
2023-04-11T23:11:07.714Z,44.53
2023-04-11T23:13:35.393Z,43.85
2023-04-11T23:16:03.064Z,34.22
2023-04-11T23:18:30.735Z,46.38
2023-04-11T23:20:58.954Z,50.17
2023-04-11T23:23:27.935Z,41.75
2023-04-11T23:25:55.709Z,42.60
2023-04-11T23:28:24.342Z,43.88
2023-04-11T23:30:52.803Z,60.28
2023-04-11T23:33:22.278Z,45.35
2023-04-11T23:35:50.133Z,36.25
2023-04-11T23:38:18.014Z,47.53
2023-04-11T23:40:46.051Z,55.50
2023-04-11T23:43:13.770Z,41.15
2023-04-11T23:45:41.591Z,46.60
2023-04-11T23:48:09.464Z,37.53
2023-04-11T23:50:37.333Z,41.92
2023-04-11T23:53:05.066Z,35.80
2023-04-11T23:55:32.871Z,48.10
2023-04-11T23:58:00.736Z,37.72
